sensor_id;sensor_type;location;lat;lon;timestamp;P1;durP1;ratioP1;P2;durP2;ratioP2
28304;SDS011;15569;42.652;23.040;2024-03-17T00:01:35;32.35;;;12.68;;
28304;SDS011;15569;42.652;23.040;2024-03-17T00:04:01;29.77;;;13.63;;
28304;SDS011;15569;42.652;23.040;2024-03-17T00:06:27;38.33;;;16.73;;
28304;SDS011;15569;42.652;23.040;2024-03-17T00:08:53;33.92;;;15.35;;
28304;SDS011;15569;42.652;23.040;2024-03-17T00:11:19;28.33;;;13.52;;
28304;SDS011;15569;42.652;23.040;2024-03-17T00:13:45;34.70;;;14.85;;
28304;SDS011;15569;42.652;23.040;2024-03-17T00:16:10;32.70;;;14.18;;
28304;SDS011;15569;42.652;23.040;2024-03-17T00:18:38;27.13;;;13.48;;
28304;SDS011;15569;42.652;23.040;2024-03-17T00:21:12;34.25;;;14.55;;
28304;SDS011;15569;42.652;23.040;2024-03-17T00:23:38;42.67;;;16.05;;
28304;SDS011;15569;42.652;23.040;2024-03-17T00:26:04;30.95;;;15.18;;
28304;SDS011;15569;42.652;23.040;2024-03-17T00:28:29;31.60;;;14.68;;
28304;SDS011;15569;42.652;23.040;2024-03-17T00:30:55;35.47;;;14.43;;
28304;SDS011;15569;42.652;23.040;2024-03-17T00:33:20;35.50;;;14.57;;
28304;SDS011;15569;42.652;23.040;2024-03-17T00:35:45;31.60;;;14.60;;
28304;SDS011;15569;42.652;23.040;2024-03-17T00:38:11;32.17;;;14.80;;
28304;SDS011;15569;42.652;23.040;2024-03-17T00:40:37;24.17;;;12.15;;
28304;SDS011;15569;42.652;23.040;2024-03-17T00:43:03;28.48;;;13.70;;
28304;SDS011;15569;42.652;23.040;2024-03-17T00:45:29;38.45;;;13.98;;
28304;SDS011;15569;42.652;23.040;2024-03-17T00:47:54;33.25;;;14.23;;
28304;SDS011;15569;42.652;23.040;2024-03-17T00:50:19;30.33;;;14.40;;
28304;SDS011;15569;42.652;23.040;2024-03-17T00:52:45;40.63;;;14.68;;
28304;SDS011;15569;42.652;23.040;2024-03-17T00:55:10;31.38;;;14.00;;
28304;SDS011;15569;42.652;23.040;2024-03-17T00:57:36;31.70;;;13.98;;
28304;SDS011;15569;42.652;23.040;2024-03-17T01:00:02;32.55;;;15.18;;
28304;SDS011;15569;42.652;23.040;2024-03-17T01:02:29;35.42;;;14.73;;
28304;SDS011;15569;42.652;23.040;2024-03-17T01:04:55;33.65;;;15.13;;
28304;SDS011;15569;42.652;23.040;2024-03-17T01:07:20;29.20;;;14.07;;
28304;SDS011;15569;42.652;23.040;2024-03-17T01:09:46;29.77;;;14.55;;
28304;SDS011;15569;42.652;23.040;2024-03-17T01:12:13;28.50;;;13.95;;
28304;SDS011;15569;42.652;23.040;2024-03-17T01:14:39;33.75;;;13.75;;
28304;SDS011;15569;42.652;23.040;2024-03-17T01:17:13;28.17;;;13.40;;
28304;SDS011;15569;42.652;23.040;2024-03-17T01:19:38;30.95;;;15.45;;
28304;SDS011;15569;42.652;23.040;2024-03-17T01:22:04;26.80;;;12.45;;
28304;SDS011;15569;42.652;23.040;2024-03-17T01:24:29;28.27;;;13.27;;
28304;SDS011;15569;42.652;23.040;2024-03-17T01:26:58;20.05;;;9.48;;
28304;SDS011;15569;42.652;23.040;2024-03-17T01:29:24;28.02;;;12.90;;
28304;SDS011;15569;42.652;23.040;2024-03-17T01:31:50;35.75;;;15.18;;
28304;SDS011;15569;42.652;23.040;2024-03-17T01:34:16;39.63;;;15.52;;
28304;SDS011;15569;42.652;23.040;2024-03-17T01:36:41;29.40;;;13.60;;
28304;SDS011;15569;42.652;23.040;2024-03-17T01:39:07;32.40;;;14.93;;
28304;SDS011;15569;42.652;23.040;2024-03-17T01:41:32;31.42;;;13.32;;
28304;SDS011;15569;42.652;23.040;2024-03-17T01:43:58;35.95;;;15.68;;
28304;SDS011;15569;42.652;23.040;2024-03-17T01:46:23;31.63;;;13.73;;
28304;SDS011;15569;42.652;23.040;2024-03-17T01:48:49;28.55;;;14.93;;
28304;SDS011;15569;42.652;23.040;2024-03-17T01:51:15;35.63;;;16.10;;
28304;SDS011;15569;42.652;23.040;2024-03-17T01:53:40;45.00;;;16.10;;
28304;SDS011;15569;42.652;23.040;2024-03-17T01:56:07;32.35;;;15.25;;
28304;SDS011;15569;42.652;23.040;2024-03-17T01:58:35;40.08;;;15.25;;
28304;SDS011;15569;42.652;23.040;2024-03-17T02:01:01;36.97;;;15.20;;
28304;SDS011;15569;42.652;23.040;2024-03-17T02:03:29;37.80;;;15.95;;
28304;SDS011;15569;42.652;23.040;2024-03-17T02:05:55;35.83;;;14.88;;
28304;SDS011;15569;42.652;23.040;2024-03-17T02:08:20;32.90;;;15.27;;
28304;SDS011;15569;42.652;23.040;2024-03-17T02:10:52;37.45;;;15.52;;
28304;SDS011;15569;42.652;23.040;2024-03-17T02:13:23;30.05;;;15.02;;
28304;SDS011;15569;42.652;23.040;2024-03-17T02:15:49;27.83;;;12.98;;
28304;SDS011;15569;42.652;23.040;2024-03-17T02:18:14;35.70;;;16.00;;
28304;SDS011;15569;42.652;23.040;2024-03-17T02:20:40;30.63;;;13.65;;
28304;SDS011;15569;42.652;23.040;2024-03-17T02:23:20;33.40;;;15.35;;
28304;SDS011;15569;42.652;23.040;2024-03-17T02:25:45;27.40;;;13.70;;
28304;SDS011;15569;42.652;23.040;2024-03-17T02:28:12;28.42;;;12.63;;
28304;SDS011;15569;42.652;23.040;2024-03-17T02:30:37;35.65;;;14.20;;
28304;SDS011;15569;42.652;23.040;2024-03-17T02:33:02;38.15;;;16.10;;
28304;SDS011;15569;42.652;23.040;2024-03-17T02:35:28;31.35;;;14.98;;
28304;SDS011;15569;42.652;23.040;2024-03-17T02:37:53;33.78;;;14.32;;
28304;SDS011;15569;42.652;23.040;2024-03-17T02:40:19;32.90;;;13.43;;
28304;SDS011;15569;42.652;23.040;2024-03-17T02:42:44;31.30;;;14.02;;
28304;SDS011;15569;42.652;23.040;2024-03-17T02:45:10;32.78;;;15.35;;
28304;SDS011;15569;42.652;23.040;2024-03-17T02:47:37;34.50;;;16.25;;
28304;SDS011;15569;42.652;23.040;2024-03-17T02:50:03;37.88;;;15.23;;
28304;SDS011;15569;42.652;23.040;2024-03-17T02:52:29;33.38;;;15.43;;
28304;SDS011;15569;42.652;23.040;2024-03-17T02:54:55;30.33;;;15.38;;
28304;SDS011;15569;42.652;23.040;2024-03-17T02:57:20;33.40;;;15.40;;
28304;SDS011;15569;42.652;23.040;2024-03-17T02:59:49;34.70;;;15.33;;
28304;SDS011;15569;42.652;23.040;2024-03-17T03:02:15;33.03;;;15.00;;
28304;SDS011;15569;42.652;23.040;2024-03-17T03:04:40;31.17;;;14.90;;
28304;SDS011;15569;42.652;23.040;2024-03-17T03:07:05;28.42;;;13.30;;
28304;SDS011;15569;42.652;23.040;2024-03-17T03:09:31;29.40;;;13.88;;
28304;SDS011;15569;42.652;23.040;2024-03-17T03:11:59;27.60;;;14.95;;
28304;SDS011;15569;42.652;23.040;2024-03-17T03:14:26;32.33;;;13.43;;
28304;SDS011;15569;42.652;23.040;2024-03-17T03:16:52;32.25;;;14.85;;
28304;SDS011;15569;42.652;23.040;2024-03-17T03:19:18;32.38;;;13.88;;
28304;SDS011;15569;42.652;23.040;2024-03-17T03:21:44;34.08;;;14.75;;
28304;SDS011;15569;42.652;23.040;2024-03-17T03:24:10;36.28;;;14.18;;
28304;SDS011;15569;42.652;23.040;2024-03-17T03:26:36;28.58;;;14.43;;
28304;SDS011;15569;42.652;23.040;2024-03-17T03:29:01;33.90;;;15.35;;
28304;SDS011;15569;42.652;23.040;2024-03-17T03:31:27;33.05;;;15.57;;
28304;SDS011;15569;42.652;23.040;2024-03-17T03:33:52;35.08;;;15.52;;
28304;SDS011;15569;42.652;23.040;2024-03-17T03:36:18;32.15;;;14.00;;
28304;SDS011;15569;42.652;23.040;2024-03-17T03:38:43;32.20;;;15.63;;
28304;SDS011;15569;42.652;23.040;2024-03-17T03:41:09;35.65;;;16.27;;
28304;SDS011;15569;42.652;23.040;2024-03-17T03:43:37;32.97;;;14.73;;
28304;SDS011;15569;42.652;23.040;2024-03-17T03:46:03;31.10;;;15.30;;
28304;SDS011;15569;42.652;23.040;2024-03-17T03:48:28;46.30;;;15.98;;
28304;SDS011;15569;42.652;23.040;2024-03-17T03:50:54;45.90;;;17.42;;
28304;SDS011;15569;42.652;23.040;2024-03-17T03:53:20;47.53;;;17.83;;
28304;SDS011;15569;42.652;23.040;2024-03-17T03:55:45;43.42;;;16.77;;
28304;SDS011;15569;42.652;23.040;2024-03-17T03:58:11;45.17;;;18.40;;
28304;SDS011;15569;42.652;23.040;2024-03-17T04:00:37;52.88;;;18.88;;
28304;SDS011;15569;42.652;23.040;2024-03-17T04:03:06;51.75;;;21.40;;
28304;SDS011;15569;42.652;23.040;2024-03-17T04:05:31;59.22;;;21.27;;
28304;SDS011;15569;42.652;23.040;2024-03-17T04:07:59;44.03;;;19.00;;
28304;SDS011;15569;42.652;23.040;2024-03-17T04:10:25;34.88;;;15.95;;
28304;SDS011;15569;42.652;23.040;2024-03-17T04:12:51;43.65;;;16.95;;
28304;SDS011;15569;42.652;23.040;2024-03-17T04:15:17;35.47;;;17.20;;
28304;SDS011;15569;42.652;23.040;2024-03-17T04:17:43;47.63;;;21.38;;
28304;SDS011;15569;42.652;23.040;2024-03-17T04:20:08;61.83;;;26.30;;
28304;SDS011;15569;42.652;23.040;2024-03-17T04:22:38;52.80;;;23.00;;
28304;SDS011;15569;42.652;23.040;2024-03-17T04:25:03;50.17;;;22.73;;
28304;SDS011;15569;42.652;23.040;2024-03-17T04:27:29;54.30;;;26.17;;
28304;SDS011;15569;42.652;23.040;2024-03-17T04:30:01;68.00;;;28.70;;
28304;SDS011;15569;42.652;23.040;2024-03-17T04:32:30;69.88;;;31.30;;
28304;SDS011;15569;42.652;23.040;2024-03-17T04:34:56;64.20;;;30.88;;
28304;SDS011;15569;42.652;23.040;2024-03-17T04:37:22;66.65;;;29.98;;
28304;SDS011;15569;42.652;23.040;2024-03-17T04:39:47;46.30;;;23.42;;
28304;SDS011;15569;42.652;23.040;2024-03-17T04:42:15;45.83;;;24.40;;
28304;SDS011;15569;42.652;23.040;2024-03-17T04:44:44;52.30;;;22.83;;
28304;SDS011;15569;42.652;23.040;2024-03-17T04:47:10;41.20;;;19.08;;
28304;SDS011;15569;42.652;23.040;2024-03-17T04:52:02;38.45;;;17.20;;
28304;SDS011;15569;42.652;23.040;2024-03-17T04:54:28;37.55;;;17.08;;
28304;SDS011;15569;42.652;23.040;2024-03-17T04:56:53;34.00;;;16.38;;
28304;SDS011;15569;42.652;23.040;2024-03-17T04:59:18;31.92;;;16.15;;
28304;SDS011;15569;42.652;23.040;2024-03-17T05:01:44;38.20;;;16.83;;
28304;SDS011;15569;42.652;23.040;2024-03-17T05:04:09;33.53;;;15.45;;
28304;SDS011;15569;42.652;23.040;2024-03-17T05:06:35;38.95;;;17.88;;
28304;SDS011;15569;42.652;23.040;2024-03-17T05:09:02;34.63;;;16.40;;
28304;SDS011;15569;42.652;23.040;2024-03-17T05:11:29;31.52;;;15.32;;
28304;SDS011;15569;42.652;23.040;2024-03-17T05:13:56;27.98;;;14.10;;
28304;SDS011;15569;42.652;23.040;2024-03-17T05:16:22;35.78;;;16.27;;
28304;SDS011;15569;42.652;23.040;2024-03-17T05:18:49;30.48;;;15.20;;
28304;SDS011;15569;42.652;23.040;2024-03-17T05:21:23;26.98;;;14.15;;
28304;SDS011;15569;42.652;23.040;2024-03-17T05:23:49;30.02;;;14.15;;
28304;SDS011;15569;42.652;23.040;2024-03-17T05:26:14;31.70;;;16.15;;
28304;SDS011;15569;42.652;23.040;2024-03-17T05:28:40;36.65;;;15.70;;
28304;SDS011;15569;42.652;23.040;2024-03-17T05:31:05;34.67;;;15.32;;
28304;SDS011;15569;42.652;23.040;2024-03-17T05:33:31;33.15;;;16.77;;
28304;SDS011;15569;42.652;23.040;2024-03-17T05:35:57;38.40;;;18.27;;
28304;SDS011;15569;42.652;23.040;2024-03-17T05:38:24;36.60;;;17.67;;
28304;SDS011;15569;42.652;23.040;2024-03-17T05:43:28;38.15;;;18.83;;
28304;SDS011;15569;42.652;23.040;2024-03-17T05:45:56;44.25;;;20.73;;
28304;SDS011;15569;42.652;23.040;2024-03-17T05:48:22;50.33;;;21.00;;
28304;SDS011;15569;42.652;23.040;2024-03-17T05:50:49;44.38;;;21.45;;
28304;SDS011;15569;42.652;23.040;2024-03-17T05:53:16;43.03;;;22.50;;
28304;SDS011;15569;42.652;23.040;2024-03-17T05:55:43;47.72;;;21.15;;
28304;SDS011;15569;42.652;23.040;2024-03-17T05:58:08;49.00;;;22.50;;
28304;SDS011;15569;42.652;23.040;2024-03-17T06:00:34;45.42;;;20.63;;
28304;SDS011;15569;42.652;23.040;2024-03-17T06:03:00;41.97;;;19.35;;
28304;SDS011;15569;42.652;23.040;2024-03-17T06:05:26;41.78;;;20.30;;
28304;SDS011;15569;42.652;23.040;2024-03-17T06:07:52;55.22;;;23.13;;
28304;SDS011;15569;42.652;23.040;2024-03-17T06:10:17;52.22;;;23.00;;
28304;SDS011;15569;42.652;23.040;2024-03-17T06:12:42;41.00;;;19.83;;
28304;SDS011;15569;42.652;23.040;2024-03-17T06:15:08;45.25;;;19.85;;
28304;SDS011;15569;42.652;23.040;2024-03-17T06:17:33;47.15;;;22.40;;
28304;SDS011;15569;42.652;23.040;2024-03-17T06:20:00;48.65;;;23.48;;
28304;SDS011;15569;42.652;23.040;2024-03-17T06:22:27;37.40;;;20.65;;
28304;SDS011;15569;42.652;23.040;2024-03-17T06:24:53;50.03;;;21.77;;
28304;SDS011;15569;42.652;23.040;2024-03-17T06:27:18;43.45;;;19.88;;
28304;SDS011;15569;42.652;23.040;2024-03-17T06:29:43;44.25;;;22.13;;
28304;SDS011;15569;42.652;23.040;2024-03-17T06:32:10;49.75;;;21.63;;
28304;SDS011;15569;42.652;23.040;2024-03-17T06:34:36;40.30;;;19.45;;
28304;SDS011;15569;42.652;23.040;2024-03-17T06:37:01;49.92;;;23.05;;
28304;SDS011;15569;42.652;23.040;2024-03-17T06:39:28;37.08;;;17.15;;
28304;SDS011;15569;42.652;23.040;2024-03-17T06:41:53;39.15;;;18.02;;
28304;SDS011;15569;42.652;23.040;2024-03-17T06:44:18;35.67;;;16.00;;
28304;SDS011;15569;42.652;23.040;2024-03-17T06:46:44;32.72;;;15.82;;
28304;SDS011;15569;42.652;23.040;2024-03-17T06:49:11;38.72;;;18.73;;
28304;SDS011;15569;42.652;23.040;2024-03-17T06:51:37;40.42;;;18.95;;
28304;SDS011;15569;42.652;23.040;2024-03-17T06:54:02;39.03;;;16.92;;
28304;SDS011;15569;42.652;23.040;2024-03-17T06:56:28;39.00;;;16.42;;
28304;SDS011;15569;42.652;23.040;2024-03-17T06:58:54;39.17;;;18.63;;
28304;SDS011;15569;42.652;23.040;2024-03-17T07:01:19;38.50;;;16.83;;
28304;SDS011;15569;42.652;23.040;2024-03-17T07:03:44;31.33;;;16.45;;
28304;SDS011;15569;42.652;23.040;2024-03-17T07:06:10;28.38;;;15.05;;
28304;SDS011;15569;42.652;23.040;2024-03-17T07:08:35;39.53;;;16.73;;
28304;SDS011;15569;42.652;23.040;2024-03-17T07:11:05;43.05;;;16.33;;
28304;SDS011;15569;42.652;23.040;2024-03-17T07:13:40;33.67;;;16.17;;
28304;SDS011;15569;42.652;23.040;2024-03-17T07:16:07;29.55;;;15.50;;
28304;SDS011;15569;42.652;23.040;2024-03-17T07:18:32;37.17;;;16.73;;
28304;SDS011;15569;42.652;23.040;2024-03-17T07:21:02;38.03;;;17.65;;
28304;SDS011;15569;42.652;23.040;2024-03-17T07:23:34;38.40;;;19.00;;
28304;SDS011;15569;42.652;23.040;2024-03-17T07:26:00;35.97;;;17.45;;
28304;SDS011;15569;42.652;23.040;2024-03-17T07:28:26;36.92;;;17.50;;
28304;SDS011;15569;42.652;23.040;2024-03-17T07:30:53;34.92;;;17.73;;
28304;SDS011;15569;42.652;23.040;2024-03-17T07:33:20;45.67;;;17.25;;
28304;SDS011;15569;42.652;23.040;2024-03-17T07:35:49;33.63;;;16.80;;
28304;SDS011;15569;42.652;23.040;2024-03-17T07:38:21;30.30;;;15.43;;
28304;SDS011;15569;42.652;23.040;2024-03-17T07:40:57;32.20;;;14.60;;
28304;SDS011;15569;42.652;23.040;2024-03-17T07:43:27;43.42;;;17.10;;
28304;SDS011;15569;42.652;23.040;2024-03-17T07:46:00;33.50;;;15.40;;
28304;SDS011;15569;42.652;23.040;2024-03-17T07:48:28;31.73;;;13.98;;
28304;SDS011;15569;42.652;23.040;2024-03-17T07:50:57;39.70;;;15.80;;
28304;SDS011;15569;42.652;23.040;2024-03-17T07:53:24;28.85;;;12.63;;
28304;SDS011;15569;42.652;23.040;2024-03-17T07:55:59;25.38;;;12.65;;
28304;SDS011;15569;42.652;23.040;2024-03-17T07:58:26;30.60;;;12.40;;
28304;SDS011;15569;42.652;23.040;2024-03-17T08:00:52;25.95;;;11.70;;
28304;SDS011;15569;42.652;23.040;2024-03-17T08:03:21;28.80;;;12.27;;
28304;SDS011;15569;42.652;23.040;2024-03-17T08:05:50;22.13;;;12.00;;
28304;SDS011;15569;42.652;23.040;2024-03-17T08:08:16;24.67;;;12.93;;
28304;SDS011;15569;42.652;23.040;2024-03-17T08:10:42;21.77;;;10.32;;
28304;SDS011;15569;42.652;23.040;2024-03-17T08:13:07;21.20;;;10.77;;
28304;SDS011;15569;42.652;23.040;2024-03-17T08:15:34;21.05;;;11.00;;
28304;SDS011;15569;42.652;23.040;2024-03-17T08:17:59;18.65;;;9.60;;
28304;SDS011;15569;42.652;23.040;2024-03-17T08:20:25;20.52;;;10.98;;
28304;SDS011;15569;42.652;23.040;2024-03-17T08:22:50;17.80;;;9.15;;
28304;SDS011;15569;42.652;23.040;2024-03-17T08:25:15;17.55;;;10.13;;
28304;SDS011;15569;42.652;23.040;2024-03-17T08:27:41;19.20;;;10.35;;
28304;SDS011;15569;42.652;23.040;2024-03-17T08:30:08;19.25;;;9.88;;
28304;SDS011;15569;42.652;23.040;2024-03-17T08:32:35;17.77;;;9.00;;
28304;SDS011;15569;42.652;23.040;2024-03-17T08:35:00;17.38;;;9.35;;
28304;SDS011;15569;42.652;23.040;2024-03-17T08:37:25;18.55;;;9.10;;
28304;SDS011;15569;42.652;23.040;2024-03-17T08:39:51;15.98;;;8.48;;
28304;SDS011;15569;42.652;23.040;2024-03-17T08:42:17;20.58;;;8.63;;
28304;SDS011;15569;42.652;23.040;2024-03-17T08:44:45;15.48;;;7.78;;
28304;SDS011;15569;42.652;23.040;2024-03-17T08:47:11;13.50;;;7.78;;
28304;SDS011;15569;42.652;23.040;2024-03-17T08:49:37;17.75;;;8.80;;
28304;SDS011;15569;42.652;23.040;2024-03-17T08:52:02;16.85;;;7.88;;
28304;SDS011;15569;42.652;23.040;2024-03-17T08:54:28;10.82;;;6.35;;
28304;SDS011;15569;42.652;23.040;2024-03-17T08:56:53;14.65;;;6.95;;
28304;SDS011;15569;42.652;23.040;2024-03-17T08:59:18;17.30;;;6.57;;
28304;SDS011;15569;42.652;23.040;2024-03-17T09:01:44;12.85;;;6.28;;
28304;SDS011;15569;42.652;23.040;2024-03-17T09:04:09;13.00;;;6.38;;
28304;SDS011;15569;42.652;23.040;2024-03-17T09:06:36;10.57;;;6.10;;
28304;SDS011;15569;42.652;23.040;2024-03-17T09:09:02;9.88;;;6.10;;
28304;SDS011;15569;42.652;23.040;2024-03-17T09:11:28;10.68;;;6.57;;
28304;SDS011;15569;42.652;23.040;2024-03-17T09:13:53;10.82;;;6.60;;
28304;SDS011;15569;42.652;23.040;2024-03-17T09:16:19;10.50;;;5.72;;
28304;SDS011;15569;42.652;23.040;2024-03-17T09:18:47;12.82;;;5.93;;
28304;SDS011;15569;42.652;23.040;2024-03-17T09:21:14;10.48;;;5.50;;
28304;SDS011;15569;42.652;23.040;2024-03-17T09:23:41;8.07;;;4.72;;
28304;SDS011;15569;42.652;23.040;2024-03-17T09:26:07;13.25;;;5.53;;
28304;SDS011;15569;42.652;23.040;2024-03-17T09:28:34;7.25;;;4.95;;
28304;SDS011;15569;42.652;23.040;2024-03-17T09:31:00;14.35;;;5.72;;
28304;SDS011;15569;42.652;23.040;2024-03-17T09:33:26;12.13;;;5.47;;
28304;SDS011;15569;42.652;23.040;2024-03-17T09:35:56;8.55;;;5.50;;
28304;SDS011;15569;42.652;23.040;2024-03-17T09:38:23;12.43;;;5.88;;
28304;SDS011;15569;42.652;23.040;2024-03-17T09:40:49;8.80;;;5.55;;
28304;SDS011;15569;42.652;23.040;2024-03-17T09:43:17;9.27;;;5.90;;
28304;SDS011;15569;42.652;23.040;2024-03-17T09:45:43;11.23;;;5.80;;
28304;SDS011;15569;42.652;23.040;2024-03-17T09:48:09;9.48;;;5.35;;
28304;SDS011;15569;42.652;23.040;2024-03-17T09:50:39;8.50;;;4.88;;
28304;SDS011;15569;42.652;23.040;2024-03-17T09:53:06;8.60;;;5.20;;
28304;SDS011;15569;42.652;23.040;2024-03-17T09:55:31;9.18;;;5.20;;
28304;SDS011;15569;42.652;23.040;2024-03-17T09:57:58;8.70;;;5.15;;
28304;SDS011;15569;42.652;23.040;2024-03-17T10:00:23;10.55;;;5.22;;
28304;SDS011;15569;42.652;23.040;2024-03-17T10:02:49;8.50;;;4.78;;
28304;SDS011;15569;42.652;23.040;2024-03-17T10:05:18;11.02;;;5.28;;
28304;SDS011;15569;42.652;23.040;2024-03-17T10:07:48;7.78;;;4.93;;
28304;SDS011;15569;42.652;23.040;2024-03-17T10:10:14;7.95;;;3.78;;
28304;SDS011;15569;42.652;23.040;2024-03-17T10:12:43;7.18;;;4.45;;
28304;SDS011;15569;42.652;23.040;2024-03-17T10:15:14;7.00;;;3.95;;
28304;SDS011;15569;42.652;23.040;2024-03-17T10:17:39;6.50;;;4.28;;
28304;SDS011;15569;42.652;23.040;2024-03-17T10:20:38;7.32;;;4.15;;
28304;SDS011;15569;42.652;23.040;2024-03-17T10:25:29;14.65;;;5.85;;
28304;SDS011;15569;42.652;23.040;2024-03-17T10:27:56;6.35;;;3.78;;
28304;SDS011;15569;42.652;23.040;2024-03-17T10:30:22;9.02;;;3.92;;
28304;SDS011;15569;42.652;23.040;2024-03-17T10:32:56;4.80;;;3.42;;
28304;SDS011;15569;42.652;23.040;2024-03-17T10:35:32;7.07;;;4.55;;
28304;SDS011;15569;42.652;23.040;2024-03-17T10:38:06;8.13;;;4.13;;
28304;SDS011;15569;42.652;23.040;2024-03-17T10:40:34;8.27;;;3.88;;
28304;SDS011;15569;42.652;23.040;2024-03-17T10:43:03;5.57;;;3.40;;
28304;SDS011;15569;42.652;23.040;2024-03-17T10:45:29;11.55;;;4.78;;
28304;SDS011;15569;42.652;23.040;2024-03-17T10:48:01;5.57;;;3.50;;
28304;SDS011;15569;42.652;23.040;2024-03-17T10:50:29;5.47;;;3.28;;
28304;SDS011;15569;42.652;23.040;2024-03-17T10:52:58;5.43;;;3.22;;
28304;SDS011;15569;42.652;23.040;2024-03-17T10:55:27;8.73;;;3.25;;
28304;SDS011;15569;42.652;23.040;2024-03-17T10:57:59;5.22;;;3.40;;
28304;SDS011;15569;42.652;23.040;2024-03-17T11:00:29;5.63;;;3.15;;
28304;SDS011;15569;42.652;23.040;2024-03-17T11:02:55;4.47;;;3.20;;
28304;SDS011;15569;42.652;23.040;2024-03-17T11:05:22;5.65;;;3.42;;
28304;SDS011;15569;42.652;23.040;2024-03-17T11:07:49;6.25;;;3.08;;
28304;SDS011;15569;42.652;23.040;2024-03-17T11:20:14;6.57;;;4.20;;
28304;SDS011;15569;42.652;23.040;2024-03-17T11:22:41;5.93;;;4.05;;
28304;SDS011;15569;42.652;23.040;2024-03-17T11:27:54;6.43;;;3.85;;
28304;SDS011;15569;42.652;23.040;2024-03-17T11:38:59;7.60;;;3.28;;
28304;SDS011;15569;42.652;23.040;2024-03-17T11:49:20;5.68;;;3.38;;
28304;SDS011;15569;42.652;23.040;2024-03-17T11:51:46;6.35;;;3.70;;
28304;SDS011;15569;42.652;23.040;2024-03-17T11:54:16;5.97;;;3.25;;
28304;SDS011;15569;42.652;23.040;2024-03-17T11:56:45;6.15;;;4.00;;
28304;SDS011;15569;42.652;23.040;2024-03-17T11:59:13;6.95;;;4.25;;
28304;SDS011;15569;42.652;23.040;2024-03-17T12:01:39;10.07;;;4.70;;
28304;SDS011;15569;42.652;23.040;2024-03-17T12:04:05;9.65;;;4.60;;
28304;SDS011;15569;42.652;23.040;2024-03-17T12:06:32;7.38;;;4.80;;
28304;SDS011;15569;42.652;23.040;2024-03-17T12:14:29;6.13;;;4.05;;
28304;SDS011;15569;42.652;23.040;2024-03-17T12:16:56;10.50;;;3.90;;
28304;SDS011;15569;42.652;23.040;2024-03-17T12:19:23;7.70;;;4.38;;
28304;SDS011;15569;42.652;23.040;2024-03-17T12:21:50;7.45;;;4.07;;
28304;SDS011;15569;42.652;23.040;2024-03-17T12:24:19;8.50;;;4.78;;
28304;SDS011;15569;42.652;23.040;2024-03-17T12:26:46;9.15;;;4.30;;
28304;SDS011;15569;42.652;23.040;2024-03-17T12:33:51;7.38;;;4.00;;
28304;SDS011;15569;42.652;23.040;2024-03-17T12:36:16;12.88;;;5.13;;
28304;SDS011;15569;42.652;23.040;2024-03-17T12:38:42;6.25;;;4.65;;
28304;SDS011;15569;42.652;23.040;2024-03-17T12:41:16;9.23;;;5.72;;
28304;SDS011;15569;42.652;23.040;2024-03-17T12:43:48;9.68;;;6.25;;
28304;SDS011;15569;42.652;23.040;2024-03-17T13:02:24;5.95;;;4.25;;
28304;SDS011;15569;42.652;23.040;2024-03-17T13:05:07;10.30;;;5.55;;
28304;SDS011;15569;42.652;23.040;2024-03-17T13:07:39;9.88;;;6.25;;
28304;SDS011;15569;42.652;23.040;2024-03-17T13:10:04;11.82;;;6.07;;
28304;SDS011;15569;42.652;23.040;2024-03-17T13:12:32;7.30;;;5.45;;
28304;SDS011;15569;42.652;23.040;2024-03-17T13:15:01;6.72;;;5.07;;
28304;SDS011;15569;42.652;23.040;2024-03-17T13:17:26;9.32;;;5.78;;
28304;SDS011;15569;42.652;23.040;2024-03-17T13:26:18;10.13;;;6.10;;
28304;SDS011;15569;42.652;23.040;2024-03-17T13:28:44;7.82;;;5.47;;
28304;SDS011;15569;42.652;23.040;2024-03-17T13:31:09;14.25;;;8.07;;
28304;SDS011;15569;42.652;23.040;2024-03-17T13:33:35;12.63;;;6.70;;
28304;SDS011;15569;42.652;23.040;2024-03-17T13:36:01;16.67;;;8.80;;
28304;SDS011;15569;42.652;23.040;2024-03-17T13:38:26;16.23;;;8.90;;
28304;SDS011;15569;42.652;23.040;2024-03-17T13:40:52;10.30;;;6.65;;
28304;SDS011;15569;42.652;23.040;2024-03-17T13:43:18;14.77;;;5.53;;
28304;SDS011;15569;42.652;23.040;2024-03-17T13:45:43;8.98;;;5.78;;
28304;SDS011;15569;42.652;23.040;2024-03-17T13:48:10;10.35;;;6.53;;
28304;SDS011;15569;42.652;23.040;2024-03-17T13:50:35;10.25;;;6.32;;
28304;SDS011;15569;42.652;23.040;2024-03-17T13:53:03;11.88;;;6.20;;
28304;SDS011;15569;42.652;23.040;2024-03-17T13:55:28;10.68;;;6.15;;
28304;SDS011;15569;42.652;23.040;2024-03-17T13:57:57;8.90;;;5.45;;
28304;SDS011;15569;42.652;23.040;2024-03-17T14:02:50;7.82;;;5.18;;
28304;SDS011;15569;42.652;23.040;2024-03-17T14:05:19;10.20;;;5.85;;
28304;SDS011;15569;42.652;23.040;2024-03-17T14:07:46;10.18;;;5.00;;
28304;SDS011;15569;42.652;23.040;2024-03-17T14:10:13;8.35;;;5.07;;
28304;SDS011;15569;42.652;23.040;2024-03-17T14:12:39;9.68;;;5.13;;
28304;SDS011;15569;42.652;23.040;2024-03-17T14:15:06;9.25;;;4.78;;
28304;SDS011;15569;42.652;23.040;2024-03-17T14:17:35;10.00;;;5.40;;
28304;SDS011;15569;42.652;23.040;2024-03-17T14:20:01;11.02;;;5.13;;
28304;SDS011;15569;42.652;23.040;2024-03-17T14:22:28;12.10;;;5.03;;
28304;SDS011;15569;42.652;23.040;2024-03-17T14:24:53;9.65;;;5.32;;
28304;SDS011;15569;42.652;23.040;2024-03-17T14:27:19;10.75;;;5.85;;
28304;SDS011;15569;42.652;23.040;2024-03-17T14:29:45;12.32;;;5.47;;
28304;SDS011;15569;42.652;23.040;2024-03-17T14:32:11;9.38;;;5.45;;
28304;SDS011;15569;42.652;23.040;2024-03-17T14:34:39;7.57;;;4.88;;
28304;SDS011;15569;42.652;23.040;2024-03-17T14:37:04;6.07;;;4.45;;
28304;SDS011;15569;42.652;23.040;2024-03-17T14:39:30;5.65;;;4.13;;
28304;SDS011;15569;42.652;23.040;2024-03-17T14:41:56;8.15;;;4.65;;
28304;SDS011;15569;42.652;23.040;2024-03-17T14:44:21;9.45;;;4.63;;
28304;SDS011;15569;42.652;23.040;2024-03-17T14:46:48;7.80;;;5.00;;
28304;SDS011;15569;42.652;23.040;2024-03-17T14:49:16;9.85;;;4.75;;
28304;SDS011;15569;42.652;23.040;2024-03-17T14:51:42;9.32;;;5.63;;
28304;SDS011;15569;42.652;23.040;2024-03-17T14:54:07;10.43;;;6.05;;
28304;SDS011;15569;42.652;23.040;2024-03-17T14:56:34;8.82;;;5.65;;
28304;SDS011;15569;42.652;23.040;2024-03-17T14:59:00;7.10;;;3.85;;
28304;SDS011;15569;42.652;23.040;2024-03-17T15:01:25;7.82;;;5.15;;
28304;SDS011;15569;42.652;23.040;2024-03-17T15:03:54;7.40;;;5.13;;
28304;SDS011;15569;42.652;23.040;2024-03-17T15:06:20;9.68;;;5.93;;
28304;SDS011;15569;42.652;23.040;2024-03-17T15:08:45;8.55;;;5.93;;
28304;SDS011;15569;42.652;23.040;2024-03-17T15:11:11;9.70;;;5.82;;
28304;SDS011;15569;42.652;23.040;2024-03-17T15:13:36;9.00;;;4.80;;
28304;SDS011;15569;42.652;23.040;2024-03-17T15:16:02;8.88;;;5.05;;
28304;SDS011;15569;42.652;23.040;2024-03-17T15:18:29;7.88;;;5.18;;
28304;SDS011;15569;42.652;23.040;2024-03-17T15:20:55;8.82;;;5.30;;
28304;SDS011;15569;42.652;23.040;2024-03-17T15:23:23;7.50;;;5.10;;
28304;SDS011;15569;42.652;23.040;2024-03-17T15:26:00;9.48;;;4.93;;
28304;SDS011;15569;42.652;23.040;2024-03-17T15:28:31;9.80;;;6.13;;